Time;durP1;ratioP1;P1;durP2;ratioP2;P2;SDS_P1;SDS_P2;PMS_P1;PMS_P2;Temp;Humidity;BMP_temperature;BMP_pressure;BME280_temperature;BME280_humidity;BME280_pressure;Samples;Min_cycle;Max_cycle;Signal;HPM_P1;HPM_P2
2021/03/24 00:04:20;;;;;;;10.77;7.60;;;;;;;5.56;59.01;98530.38;10040139;29;20049;-76
2021/03/24 00:09:40;;;;;;;11.13;7.70;;;;;;;5.50;59.04;98540.84;10039520;29;20049;-75
2021/03/24 00:15:00;;;;;;;11.98;7.47;;;;;;;5.49;59.35;98542.84;10027184;29;20049;-76
2021/03/24 00:20:25;;;;;;;10.85;7.45;;;;;;;5.50;59.09;98540.84;10039132;29;20047;-77
2021/03/24 00:25:45;;;;;;;9.40;6.85;;;;;;;5.42;59.44;98544.31;10026225;29;20061;-76
2021/03/24 00:31:05;;;;;;;10.68;7.72;;;;;;;5.38;59.45;98538.34;10037381;29;20046;-75
2021/03/24 00:36:25;;;;;;;11.00;7.95;;;;;;;5.34;59.44;98526.88;10037384;29;20098;-75
2021/03/24 00:41:45;;;;;;;13.23;8.68;;;;;;;5.35;59.41;98522.06;10037046;29;20049;-75
2021/03/24 00:47:05;;;;;;;13.35;8.70;;;;;;;5.36;59.41;98520.78;10024679;29;20110;-76
2021/03/24 00:52:26;;;;;;;10.48;8.65;;;;;;;5.39;59.62;98517.66;10037879;29;20048;-76
2021/03/24 00:57:45;;;;;;;11.77;8.85;;;;;;;5.42;59.79;98524.19;10036474;29;20101;-75
2021/03/24 01:03:06;;;;;;;15.55;9.63;;;;;;;5.40;59.40;98510.88;10036296;29;20057;-75
2021/03/24 01:08:25;;;;;;;15.15;9.90;;;;;;;5.36;59.22;98502.16;10036852;29;20053;-75
2021/03/24 01:13:45;;;;;;;12.65;9.25;;;;;;;5.36;59.39;98507.69;10023890;29;20120;-76
2021/03/24 01:19:06;;;;;;;13.70;9.73;;;;;;;5.40;59.25;98512.88;10035472;29;20397;-75
2021/03/24 01:24:26;;;;;;;13.75;9.60;;;;;;;5.41;59.17;98509.59;10048740;29;20379;-76
2021/03/24 01:29:46;;;;;;;12.38;10.07;;;;;;;5.43;59.54;98511.81;10036063;29;20053;-75
2021/03/24 01:35:07;;;;;;;14.32;10.27;;;;;;;5.41;59.17;98512.34;10035542;29;20041;-76
2021/03/24 01:40:47;;;;;;;13.20;10.05;;;;;;;5.37;58.93;98495.34;10036603;29;20049;-76
2021/03/24 01:46:19;;;;;;;16.70;10.48;;;;;;;5.38;59.49;98493.31;10060381;29;20061;-76
2021/03/24 01:51:59;;;;;;;12.95;10.13;;;;;;;5.41;58.80;98498.50;10060553;29;20049;-76
2021/03/24 01:57:23;;;;;;;12.80;9.65;;;;;;;5.44;58.91;98489.13;10024166;29;20064;-76
2021/03/24 02:11:21;;;;;;;13.48;8.98;;;;;;;5.37;58.96;98492.56;10061014;29;20069;-75
2021/03/24 02:16:50;;;;;;;12.45;8.65;;;;;;;5.33;59.04;98486.63;10047699;29;20053;-75
2021/03/24 02:22:10;;;;;;;11.60;9.18;;;;;;;5.33;58.72;98497.72;10048432;29;20045;-76
2021/03/24 02:28:00;;;;;;;10.70;8.82;;;;;;;5.36;59.02;98502.16;10041020;29;20085;-75
2021/03/24 02:33:30;;;;;;;10.00;8.27;;;;;;;5.34;59.08;98499.19;10022609;29;20108;-76
2021/03/24 02:39:21;;;;;;;12.52;8.18;;;;;;;5.36;58.49;98501.41;10041431;29;20045;-75
2021/03/24 02:44:42;;;;;;;12.15;8.82;;;;;;;5.39;58.88;98501.06;10033392;29;20052;-76
2021/03/24 02:50:12;;;;;;;11.98;8.38;;;;;;;5.39;58.79;98497.56;10034950;29;20053;-76
2021/03/24 02:55:35;;;;;;;11.07;8.60;;;;;;;5.37;58.84;98495.34;10034497;29;20061;-76
2021/03/24 03:00:56;;;;;;;11.02;8.55;;;;;;;5.37;58.63;98492.56;10034257;29;20058;-76
2021/03/24 03:06:16;;;;;;;12.70;8.60;;;;;;;5.37;58.73;98486.28;10033922;29;20046;-75
2021/03/24 03:27:13;;;;;;;12.55;9.25;;;;;;;5.35;58.85;98477.78;10017518;29;20061;-76
2021/03/24 03:32:32;;;;;;;11.43;8.70;;;;;;;5.33;58.62;98477.59;10020457;29;20161;-76
2021/03/24 03:37:57;;;;;;;12.23;9.02;;;;;;;5.29;58.52;98469.59;10007531;29;20402;-76
2021/03/24 03:43:21;;;;;;;;;;;;;;;5.22;59.02;98462.00;10019377;29;20410;-76
2021/03/24 03:49:10;;;;;;;12.55;8.80;;;;;;;5.10;59.17;98455.97;10042254;29;19920;-75
2021/03/24 03:54:45;;;;;;;13.85;9.48;;;;;;;5.13;59.09;98448.63;10034869;29;20049;-76
2021/03/24 04:00:20;;;;;;;14.38;8.95;;;;;;;5.06;58.71;98452.81;10024872;29;20404;-77
2021/03/24 04:05:42;;;;;;;14.40;9.00;;;;;;;5.07;59.35;98448.03;10049486;29;20484;-76
2021/03/24 04:11:08;;;;;;;14.18;8.93;;;;;;;5.04;59.19;98458.16;10025989;29;20053;-76
2021/03/24 04:16:30;;;;;;;13.93;9.30;;;;;;;5.10;58.84;98466.31;10027318;29;20057;-76
2021/03/24 04:21:53;;;;;;;12.10;8.52;;;;;;;5.09;58.63;98468.34;10039445;29;20493;-77
2021/03/24 04:27:14;;;;;;;12.38;8.50;;;;;;;5.13;58.91;98479.81;10038949;29;20050;-75
2021/03/24 04:32:33;;;;;;;14.63;9.20;;;;;;;5.13;59.11;98481.84;10037514;29;20046;-76
2021/03/24 04:37:55;;;;;;;14.82;9.55;;;;;;;5.15;58.61;98493.84;10037218;29;20049;-76
2021/03/24 04:43:24;;;;;;;12.65;8.98;;;;;;;5.14;58.95;98497.16;10036892;29;20047;-75
2021/03/24 04:49:09;;;;;;;14.55;9.18;;;;;;;5.12;58.82;98499.75;10038239;29;20052;-76
2021/03/24 04:54:35;;;;;;;13.90;9.95;;;;;;;5.08;58.81;98507.63;10039630;29;20072;-77
2021/03/24 05:00:13;;;;;;;13.82;9.60;;;;;;;5.11;58.74;98510.03;10040265;29;20064;-76
2021/03/24 05:05:33;;;;;;;16.80;9.93;;;;;;;5.12;58.85;98505.28;10039960;29;20084;-76
2021/03/24 05:11:31;;;;;;;16.00;10.82;;;;;;;5.11;58.77;98512.06;10046756;29;20050;-75
2021/03/24 05:17:15;;;;;;;15.95;10.10;;;;;;;5.16;59.03;98505.66;10025761;29;20148;-76
2021/03/24 05:22:43;;;;;;;14.65;10.02;;;;;;;5.20;59.16;98511.59;10065674;29;20045;-75
2021/03/24 05:28:40;;;;;;;14.65;9.80;;;;;;;5.23;59.06;98518.84;10038386;29;20050;-75
2021/03/24 05:50:00;;;;;;;13.70;9.63;;;;;;;5.48;58.64;98524.75;10064640;29;20401;-75
2021/03/24 05:55:42;;;;;;;13.63;9.38;;;;;;;5.46;58.50;98522.53;10037940;29;20050;-75
2021/03/24 06:01:25;;;;;;;16.02;10.73;;;;;;;5.47;58.96;98529.56;10041810;29;20054;-77
2021/03/24 06:07:32;;;;;;;16.33;10.40;;;;;;;5.49;58.75;98522.72;10029317;29;20045;-77
2021/03/24 06:13:27;;;;;;;14.80;10.35;;;;;;;5.58;59.07;98516.72;10039180;29;20053;-77
2021/03/24 06:34:43;;;;;;;20.55;12.57;;;;;;;5.97;58.04;98524.78;10064700;29;20045;-76
2021/03/24 06:40:33;;;;;;;18.92;11.73;;;;;;;6.16;58.35;98526.53;9946661;29;20066;-76
2021/03/24 06:46:16;;;;;;;18.42;12.30;;;;;;;6.40;58.21;98530.94;10063713;29;20049;-76
2021/03/24 06:51:45;;;;;;;18.42;13.07;;;;;;;6.55;57.72;98545.59;10037611;29;20106;-75
2021/03/24 07:06:23;;;;;;;20.52;14.65;;;;;;;7.02;57.31;98566.66;10061024;29;20054;-75
2021/03/24 07:19:45;;;;;;;22.38;15.90;;;;;;;7.16;56.21;98570.78;9987416;29;20078;-76
2021/03/24 07:25:16;;;;;;;20.83;14.93;;;;;;;7.27;56.33;98564.13;9968965;29;20062;-77
2021/03/24 07:31:39;;;;;;;23.83;15.38;;;;;;;7.45;56.57;98562.31;9971019;29;20054;-76
2021/03/24 07:37:37;;;;;;;20.27;15.18;;;;;;;7.85;56.01;98565.28;9967179;29;20062;-76
2021/03/24 07:44:04;;;;;;;21.80;15.38;;;;;;;8.28;55.18;98564.25;9977493;29;20496;-76
2021/03/24 08:13:22;;;;;;;19.90;15.70;;;;;;;9.10;53.15;98585.34;10065976;29;20041;-78
2021/03/24 08:18:44;;;;;;;21.25;15.85;;;;;;;9.30;53.53;98578.72;10050943;29;20105;-77
2021/03/24 08:24:31;;;;;;;21.02;17.15;;;;;;;9.63;52.04;98578.69;10039163;29;20042;-76
2021/03/24 08:54:08;;;;;;;21.60;17.23;;;;;;;9.97;50.62;98566.88;9946378;29;20497;-75
2021/03/24 08:59:46;;;;;;;25.90;17.80;;;;;;;10.28;50.42;98576.47;9946937;29;20103;-75
2021/03/24 09:21:24;;;;;;;23.95;18.85;;;;;;;10.65;48.86;98559.88;10063990;29;20137;-75
2021/03/24 09:35:31;;;;;;;23.45;19.55;;;;;;;11.41;46.99;98544.16;10063640;29;20493;-75
2021/03/24 09:57:14;;;;;;;26.17;20.50;;;;;;;13.04;42.64;98539.31;9873274;29;20048;-76
2021/03/24 10:19:49;;;;;;;26.35;22.75;;;;;;;19.06;38.82;98531.66;9941941;29;20063;-77
2021/03/24 10:34:31;;;;;;;26.75;23.95;;;;;;;28.04;26.46;98523.44;9970017;29;20082;-79
2021/03/24 10:39:51;;;;;;;24.70;20.75;;;;;;;29.74;23.28;98511.75;9967094;29;20050;-79
2021/03/24 10:45:30;;;;;;;24.58;21.88;;;;;;;27.26;20.57;98513.16;9978297;29;20050;-80
2021/03/24 10:51:11;;;;;;;24.25;21.65;;;;;;;25.43;22.67;98504.22;10044024;29;20057;-78
2021/03/24 10:57:05;;;;;;;23.40;20.70;;;;;;;26.92;21.49;98499.75;10031751;29;20374;-79
2021/03/24 11:02:36;;;;;;;23.85;21.27;;;;;;;26.47;19.98;98481.19;10010742;29;741293;-80
2021/03/24 11:08:59;;;;;;;24.60;20.85;;;;;;;26.77;19.81;98486.66;10032710;29;20102;-81
2021/03/24 11:14:24;;;;;;;23.90;21.30;;;;;;;25.40;19.21;98478.47;9940402;29;20419;-81
2021/03/24 11:19:47;;;;;;;23.60;21.17;;;;;;;24.72;19.78;98466.97;10041239;29;20557;-81
2021/03/24 11:25:40;;;;;;;25.17;21.55;;;;;;;25.08;19.67;98458.50;10063908;29;20111;-81
2021/03/24 11:31:15;;;;;;;25.57;22.70;;;;;;;23.27;20.08;98447.50;10050811;29;20041;-79
2021/03/24 11:37:25;;;;;;;24.92;22.30;;;;;;;22.27;20.73;98447.28;10035439;29;20045;-80
2021/03/24 11:42:52;;;;;;;25.10;22.13;;;;;;;21.96;21.35;98443.41;10038373;29;20060;-83
2021/03/24 11:48:59;;;;;;;27.25;23.17;;;;;;;21.67;21.38;98429.63;10064078;29;20053;-81
2021/03/24 11:54:41;;;;;;;26.23;23.38;;;;;;;21.18;22.12;98421.47;10050454;29;20058;-84
2021/03/24 12:00:10;;;;;;;25.75;23.05;;;;;;;20.68;22.24;98421.75;10051198;29;20410;-83
2021/03/24 12:06:02;;;;;;;27.05;23.67;;;;;;;20.37;22.96;98410.56;10063319;29;20062;-83
2021/03/24 12:11:31;;;;;;;26.92;24.00;;;;;;;20.09;23.46;98401.66;10027579;29;20383;-86
2021/03/24 12:16:56;;;;;;;31.25;26.08;;;;;;;19.19;24.26;98397.13;10049927;29;20046;-82
2021/03/24 12:22:26;;;;;;;29.73;26.58;;;;;;;19.01;24.90;98388.53;10049726;29;20053;-84
2021/03/24 12:28:03;;;;;;;26.67;23.70;;;;;;;18.67;25.43;98385.63;10062392;29;20049;-84
2021/03/24 12:33:27;;;;;;;26.25;23.42;;;;;;;18.88;24.92;98381.63;10049943;29;20056;-83
2021/03/24 12:39:19;;;;;;;28.95;22.88;;;;;;;19.11;25.49;98381.25;10053909;29;20053;-83
2021/03/24 12:44:42;;;;;;;26.45;23.08;;;;;;;19.23;25.32;98374.66;10049375;29;20053;-77
2021/03/24 12:50:11;;;;;;;27.15;23.52;;;;;;;18.94;25.48;98364.94;10043937;29;20087;-79
2021/03/24 13:03:20;;;;;;;31.13;26.00;;;;;;;17.91;26.41;98366.47;10527174;23;20061;-81
2021/03/24 13:17:30;;;;;;;29.13;24.05;;;;;;;17.19;27.95;98350.16;10155342;29;20053;-79
2021/03/24 13:23:17;;;;;;;30.90;26.85;;;;;;;16.95;27.70;98338.34;10114919;29;20048;-79
2021/03/24 13:29:04;;;;;;;28.20;25.05;;;;;;;16.75;27.97;98344.38;10122473;29;20056;-79
2021/03/24 13:35:01;;;;;;;30.98;25.88;;;;;;;16.88;28.20;98326.75;10121155;29;20044;-79
2021/03/24 13:41:09;;;;;;;27.67;24.73;;;;;;;16.63;28.36;98320.44;10108089;29;20048;-79
2021/03/24 13:46:37;;;;;;;29.50;25.17;;;;;;;16.59;28.48;98318.84;10131291;29;20405;-79
2021/03/24 13:58:46;;;;;;;29.20;24.23;;;;;;;15.98;28.95;98300.75;11926510;23;20066;-81
2021/03/24 14:04:59;;;;;;;33.08;24.67;;;;;;;15.79;29.77;98292.66;10282457;23;20097;-81
2021/03/24 14:10:37;;;;;;;28.30;24.33;;;;;;;15.55;29.79;98289.91;10269950;23;20064;-79
2021/03/24 14:23:16;;;;;;;27.38;23.45;;;;;;;15.35;30.17;98286.69;12407425;23;20030;31
2021/03/24 14:34:44;;;;;;;27.60;22.85;;;;;;;15.22;30.66;98269.72;10055293;23;20054;31
2021/03/24 14:47:26;;;;;;;27.92;21.20;;;;;;;15.03;31.06;98263.03;10603837;23;20412;-79
2021/03/24 14:53:23;;;;;;;30.10;24.25;;;;;;;14.84;31.18;98257.69;11456238;23;20062;-81
2021/03/24 14:59:40;;;;;;;33.03;22.85;;;;;;;14.65;31.63;98261.47;10138093;29;20129;-77
2021/03/24 15:05:44;;;;;;;30.17;22.80;;;;;;;14.56;31.77;98257.44;10142786;29;20048;-76
2021/03/24 15:12:11;;;;;;;25.80;22.33;;;;;;;14.47;32.35;98251.97;10137832;29;20048;-78
2021/03/24 15:17:47;;;;;;;25.88;22.45;;;;;;;14.23;32.08;98254.00;11294197;23;20060;-80
2021/03/24 15:23:50;;;;;;;28.38;23.42;;;;;;;14.09;32.33;98248.25;10602878;23;20040;-84
2021/03/24 15:29:37;;;;;;;31.08;22.60;;;;;;;13.92;32.77;98243.72;10917200;23;20067;-83
2021/03/24 15:36:08;;;;;;;32.13;22.95;;;;;;;13.72;33.14;98242.44;10954620;23;20055;-80
2021/03/24 15:42:15;;;;;;;28.15;22.02;;;;;;;13.48;33.14;98244.44;10062821;29;20086;-82
2021/03/24 15:47:55;;;;;;;27.92;23.85;;;;;;;13.34;33.56;98244.25;10013513;29;20045;-79
2021/03/24 15:53:46;;;;;;;27.25;21.35;;;;;;;13.18;34.09;98231.97;9973492;29;20054;-79
2021/03/24 16:00:20;;;;;;;29.42;22.67;;;;;;;12.93;34.00;98237.28;10023397;29;20591;-79
2021/03/24 16:19:15;;;;;;;27.63;22.08;;;;;;;12.35;35.10;98227.16;10264719;23;20266;-81
2021/03/24 16:24:51;;;;;;;30.90;21.80;;;;;;;12.15;35.49;98228.56;10145955;29;20112;-84
2021/03/24 16:30:54;;;;;;;30.75;23.65;;;;;;;11.95;35.85;98227.91;10147296;29;20089;-80
2021/03/24 16:36:50;;;;;;;29.67;23.05;;;;;;;11.79;36.09;98235.16;10090738;29;20052;-79
2021/03/24 16:42:35;;;;;;;35.22;23.08;;;;;;;11.56;36.81;98227.22;10058431;29;20063;-79
2021/03/24 16:48:35;;;;;;;31.88;23.38;;;;;;;11.39;36.69;98231.66;10084162;29;20057;-79
2021/03/24 16:54:15;;;;;;;33.58;23.98;;;;;;;11.20;37.21;98234.47;10096905;29;20057;-81
2021/03/24 16:59:49;;;;;;;34.75;26.60;;;;;;;11.03;37.51;98234.59;10398026;24;20055;-81
2021/03/24 17:05:18;;;;;;;;;;;;;;;10.82;38.26;98226.78;10114232;29;20063;-80
2021/03/24 17:10:49;;;;;;;34.20;25.67;;;;;;;10.60;38.14;98229.38;10318072;23;19923;-80
2021/03/24 17:16:14;;;;;;;32.92;25.00;;;;;;;10.42;38.43;98225.25;10242373;23;20036;-81
2021/03/24 17:21:56;;;;;;;33.50;25.33;;;;;;;10.18;39.35;98228.94;10686700;23;20056;-80
2021/03/24 17:27:19;;;;;;;42.85;29.23;;;;;;;10.05;39.51;98232.84;10134716;29;20055;-79
2021/03/24 17:32:44;;;;;;;37.10;27.50;;;;;;;9.91;40.08;98226.16;10184381;29;20071;-78
2021/03/24 17:38:24;;;;;;;38.08;26.38;;;;;;;9.72;41.06;98224.00;10143580;29;20491;-79
2021/03/24 17:43:58;;;;;;;37.35;26.58;;;;;;;9.56;40.20;98223.47;10148622;29;20052;-79
2021/03/24 17:49:30;;;;;;;43.73;26.93;;;;;;;9.38;40.64;98233.91;10636913;23;20460;-76
2021/03/24 17:55:18;;;;;;;36.58;26.08;;;;;;;9.24;41.55;98232.03;10152006;29;20044;-79
2021/03/24 18:01:17;;;;;;;43.33;27.48;;;;;;;9.04;42.65;98233.91;10190496;23;20044;31
2021/03/24 18:06:39;;;;;;;38.38;26.25;;;;;;;8.78;41.89;98230.47;10078113;29;20049;-79
2021/03/24 18:12:27;;;;;;;40.90;28.77;;;;;;;8.59;42.49;98247.00;10059785;29;20060;-79
2021/03/24 18:18:13;;;;;;;39.55;27.77;;;;;;;8.47;42.72;98238.34;10797864;23;20056;-79
2021/03/24 18:23:35;;;;;;;40.53;28.58;;;;;;;8.40;43.54;98238.44;10149275;29;20051;-79
2021/03/24 18:28:56;;;;;;;45.78;29.52;;;;;;;8.30;44.02;98229.94;10689726;23;20040;-79
2021/03/24 18:40:51;;;;;;;42.67;29.83;;;;;;;8.30;44.56;98246.63;10770148;23;20507;-79
2021/03/24 18:46:11;;;;;;;39.70;28.10;;;;;;;8.25;44.77;98245.53;10135061;29;20048;-77
2021/03/24 18:51:39;;;;;;;41.42;28.45;;;;;;;8.22;44.67;98245.94;10147867;29;20048;-79
2021/03/24 18:57:00;;;;;;;47.53;30.05;;;;;;;8.19;45.28;98247.81;10150972;29;20055;-79
2021/03/24 19:02:25;;;;;;;44.33;29.30;;;;;;;8.19;45.14;98247.81;10128481;29;20071;-80
2021/03/24 19:07:46;;;;;;;46.17;30.10;;;;;;;8.15;45.56;98241.16;10134396;29;20045;-81
2021/03/24 19:13:06;;;;;;;40.83;27.77;;;;;;;8.03;45.83;98246.44;10108582;29;20037;-80
2021/03/24 19:18:36;;;;;;;41.33;28.42;;;;;;;8.01;45.71;98237.94;10098854;29;20040;-79
2021/03/24 19:24:29;;;;;;;46.92;29.80;;;;;;;7.93;47.55;98234.47;10118253;29;20040;-81
2021/03/24 19:30:19;;;;;;;46.38;29.45;;;;;;;7.81;46.50;98238.97;10104262;29;20056;-81
2021/03/24 19:36:07;;;;;;;46.58;27.45;;;;;;;7.72;46.58;98237.53;10092555;29;20064;-80
2021/03/24 19:41:41;;;;;;;43.80;26.98;;;;;;;7.68;46.78;98239.97;10095677;29;20544;-80
2021/03/24 19:47:20;;;;;;;39.73;25.80;;;;;;;7.58;47.02;98242.59;10129410;29;20048;-79
2021/03/24 19:52:40;;;;;;;37.50;25.55;;;;;;;7.53;47.09;98240.78;10109536;29;20049;-79
2021/03/24 19:58:14;;;;;;;38.50;25.27;;;;;;;7.49;47.43;98226.53;10116668;29;20460;-80
2021/03/24 20:03:40;;;;;;;40.58;24.77;;;;;;;7.47;48.10;98226.38;10118422;29;20056;-79
2021/03/24 20:09:27;;;;;;;40.08;24.33;;;;;;;7.46;48.10;98216.56;10129300;29;20099;-80
2021/03/24 20:15:02;;;;;;;35.28;23.55;;;;;;;7.42;48.24;98216.19;10104225;29;20369;-79
2021/03/24 20:20:32;;;;;;;32.50;22.88;;;;;;;7.37;48.36;98214.38;10089487;29;20407;-80
2021/03/24 20:25:52;;;;;;;31.90;21.88;;;;;;;7.32;48.54;98220.88;10107788;29;20139;-82
2021/03/24 20:31:23;;;;;;;33.53;22.33;;;;;;;7.28;48.94;98228.84;10117490;29;20045;-79
2021/03/24 20:36:48;;;;;;;43.45;30.35;;;;;;;7.26;48.82;98223.13;10114001;29;20051;-78
2021/03/24 20:42:16;;;;;;;40.75;24.90;;;;;;;7.15;49.34;98225.00;10115401;29;20060;-80
2021/03/24 20:47:36;;;;;;;34.08;22.55;;;;;;;7.07;49.08;98227.06;10115946;29;20488;-80
2021/03/24 20:52:55;;;;;;;34.63;23.00;;;;;;;7.09;49.66;98226.50;10109713;29;20047;-81
2021/03/24 20:58:32;;;;;;;35.58;24.55;;;;;;;7.09;50.73;98220.97;10154675;29;20045;-82
2021/03/24 21:03:52;;;;;;;35.90;24.80;;;;;;;7.08;50.38;98219.47;10158278;29;20047;-80
2021/03/24 21:09:13;;;;;;;36.42;24.65;;;;;;;7.02;51.04;98205.78;10106500;29;20055;-80
2021/03/24 21:14:33;;;;;;;34.42;24.13;;;;;;;6.92;51.10;98209.72;10138020;29;20057;-81
2021/03/24 21:32:32;;;;;;;32.33;22.27;;;;;;;6.77;52.15;98202.19;10800663;23;20423;-78
2021/03/24 21:37:52;;;;;;;34.35;21.67;;;;;;;6.72;51.94;98205.88;10173388;29;20079;-81
2021/03/24 21:43:12;;;;;;;31.38;23.17;;;;;;;6.66;52.09;98197.75;10182307;29;20052;-81
2021/03/24 21:48:38;;;;;;;38.83;27.42;;;;;;;6.60;52.31;98203.50;10169851;29;20103;-81
2021/03/24 21:53:58;;;;;;;37.08;23.95;;;;;;;6.56;53.80;98205.91;10164744;29;20052;-82
2021/03/24 21:59:34;;;;;;;32.10;22.40;;;;;;;6.52;53.09;98202.75;10193091;29;20044;-82
2021/03/24 22:04:55;;;;;;;31.25;23.35;;;;;;;6.46;53.71;98199.44;10176688;29;20051;-82
2021/03/24 22:10:17;;;;;;;38.45;25.17;;;;;;;6.41;53.86;98205.19;10141330;29;20100;-81
2021/03/24 22:15:38;;;;;;;31.98;23.58;;;;;;;6.34;53.89;98194.81;10141119;29;20035;-82
2021/03/24 22:21:04;;;;;;;32.40;23.50;;;;;;;6.28;53.92;98189.47;10141077;29;20048;-81
2021/03/24 22:26:55;;;;;;;33.75;24.27;;;;;;;6.20;54.06;98197.06;10140885;29;20076;-82
2021/03/24 22:32:26;;;;;;;41.22;24.42;;;;;;;6.09;54.43;98191.88;10164580;29;20060;-82
2021/03/24 22:37:50;;;;;;;35.85;24.10;;;;;;;5.99;54.57;98195.19;10139075;29;20045;-81
2021/03/24 22:43:11;;;;;;;38.88;24.90;;;;;;;5.93;54.56;98194.63;10126250;29;20028;-81
2021/03/24 22:49:17;;;;;;;34.30;24.00;;;;;;;5.89;55.13;98199.03;10124259;29;20386;-81
2021/03/24 22:54:37;;;;;;;31.17;22.60;;;;;;;5.85;55.01;98195.88;10162060;29;20049;-82
2021/03/24 22:59:58;;;;;;;34.25;22.73;;;;;;;5.83;55.06;98182.59;10134909;29;20048;-82
2021/03/24 23:05:19;;;;;;;30.08;20.73;;;;;;;5.83;55.40;98188.13;10121488;29;20048;-81
2021/03/24 23:10:40;;;;;;;29.85;21.15;;;;;;;5.84;55.21;98177.78;10133173;29;20045;-80
2021/03/24 23:16:07;;;;;;;29.13;20.05;;;;;;;5.77;55.20;98176.47;10147664;29;20112;-82
2021/03/24 23:21:27;;;;;;;27.45;19.58;;;;;;;5.75;55.77;98165.22;10135344;29;20095;-83
2021/03/24 23:26:48;;;;;;;24.20;17.55;;;;;;;5.74;55.31;98164.47;10134084;29;20059;-82
2021/03/24 23:32:09;;;;;;;26.85;18.67;;;;;;;5.70;55.48;98158.56;10118950;29;20067;-81
2021/03/24 23:37:29;;;;;;;28.05;17.77;;;;;;;5.74;55.60;98160.97;10119648;29;20453;-82
2021/03/24 23:42:49;;;;;;;28.42;17.08;;;;;;;5.73;55.89;98162.25;10131290;29;20075;-82
2021/03/24 23:48:25;;;;;;;26.08;18.35;;;;;;;5.73;55.50;98159.50;10105368;29;20055;-81
2021/03/24 23:53:45;;;;;;;28.13;18.42;;;;;;;5.71;56.00;98154.50;10132391;29;20563;-81
2021/03/24 23:59:07;;;;;;;30.70;21.58;;;;;;;5.63;56.27;98153.75;10143436;29;20595;-82
